sensor_id;sensor_type;location;lat;lon;timestamp;temperature;humidity
3846;DHT22;1938;50.812;7.738;2023-08-24T00:01:21;17.20;1.00
3846;DHT22;1938;50.812;7.738;2023-08-24T00:03:46;17.20;1.00
3846;DHT22;1938;50.812;7.738;2023-08-24T00:06:13;17.10;1.00
3846;DHT22;1938;50.812;7.738;2023-08-24T00:08:38;17.10;1.00
3846;DHT22;1938;50.812;7.738;2023-08-24T00:11:04;17.10;1.00
3846;DHT22;1938;50.812;7.738;2023-08-24T00:13:31;17.00;1.00
3846;DHT22;1938;50.812;7.738;2023-08-24T00:15:56;17.00;5.80
3846;DHT22;1938;50.812;7.738;2023-08-24T00:18:22;17.10;1.00
3846;DHT22;1938;50.812;7.738;2023-08-24T00:20:50;17.10;1.00
3846;DHT22;1938;50.812;7.738;2023-08-24T00:23:16;17.20;99.90
3846;DHT22;1938;50.812;7.738;2023-08-24T00:25:42;17.20;99.90
3846;DHT22;1938;50.812;7.738;2023-08-24T00:28:08;17.20;99.90
3846;DHT22;1938;50.812;7.738;2023-08-24T00:30:34;17.10;1.00
3846;DHT22;1938;50.812;7.738;2023-08-24T00:33:00;17.00;1.00
3846;DHT22;1938;50.812;7.738;2023-08-24T00:35:26;16.90;1.00
3846;DHT22;1938;50.812;7.738;2023-08-24T00:37:52;16.80;10.80
3846;DHT22;1938;50.812;7.738;2023-08-24T00:40:18;16.70;73.00
3846;DHT22;1938;50.812;7.738;2023-08-24T00:42:45;16.70;99.90
3846;DHT22;1938;50.812;7.738;2023-08-24T00:45:12;16.60;99.90
3846;DHT22;1938;50.812;7.738;2023-08-24T00:47:40;16.50;99.90
3846;DHT22;1938;50.812;7.738;2023-08-24T00:50:09;16.50;99.90
3846;DHT22;1938;50.812;7.738;2023-08-24T00:52:38;16.50;99.90
3846;DHT22;1938;50.812;7.738;2023-08-24T00:55:05;16.50;99.90
3846;DHT22;1938;50.812;7.738;2023-08-24T00:57:32;16.40;99.90
3846;DHT22;1938;50.812;7.738;2023-08-24T00:59:59;16.40;99.90
3846;DHT22;1938;50.812;7.738;2023-08-24T01:02:28;16.40;99.90
3846;DHT22;1938;50.812;7.738;2023-08-24T01:04:53;16.40;99.90
3846;DHT22;1938;50.812;7.738;2023-08-24T01:07:19;16.40;99.90
3846;DHT22;1938;50.812;7.738;2023-08-24T01:09:46;16.30;99.90
3846;DHT22;1938;50.812;7.738;2023-08-24T01:15:09;16.30;99.90
3846;DHT22;1938;50.812;7.738;2023-08-24T01:17:39;16.30;99.90
3846;DHT22;1938;50.812;7.738;2023-08-24T01:20:07;16.30;99.90
3846;DHT22;1938;50.812;7.738;2023-08-24T01:25:15;16.30;99.90
3846;DHT22;1938;50.812;7.738;2023-08-24T01:27:43;16.20;99.90
3846;DHT22;1938;50.812;7.738;2023-08-24T01:30:09;16.30;99.90
3846;DHT22;1938;50.812;7.738;2023-08-24T01:32:36;16.30;99.90
3846;DHT22;1938;50.812;7.738;2023-08-24T01:35:05;16.30;99.90
3846;DHT22;1938;50.812;7.738;2023-08-24T01:37:32;16.30;99.90
3846;DHT22;1938;50.812;7.738;2023-08-24T01:40:17;16.30;99.90
3846;DHT22;1938;50.812;7.738;2023-08-24T01:42:51;16.20;99.90
3846;DHT22;1938;50.812;7.738;2023-08-24T01:45:18;16.20;99.90
3846;DHT22;1938;50.812;7.738;2023-08-24T01:47:45;16.20;99.90
3846;DHT22;1938;50.812;7.738;2023-08-24T01:50:13;16.20;99.90
3846;DHT22;1938;50.812;7.738;2023-08-24T01:52:40;16.10;99.90
3846;DHT22;1938;50.812;7.738;2023-08-24T01:55:07;16.10;99.90
3846;DHT22;1938;50.812;7.738;2023-08-24T01:57:33;16.10;99.90
3846;DHT22;1938;50.812;7.738;2023-08-24T01:59:59;16.10;99.90
3846;DHT22;1938;50.812;7.738;2023-08-24T02:02:25;16.10;99.90
3846;DHT22;1938;50.812;7.738;2023-08-24T02:04:51;16.10;99.90
3846;DHT22;1938;50.812;7.738;2023-08-24T02:07:16;16.10;99.90
3846;DHT22;1938;50.812;7.738;2023-08-24T02:09:42;16.10;99.90
3846;DHT22;1938;50.812;7.738;2023-08-24T02:12:07;16.10;99.90
3846;DHT22;1938;50.812;7.738;2023-08-24T02:14:33;16.10;99.90
3846;DHT22;1938;50.812;7.738;2023-08-24T02:16:58;16.10;99.90
3846;DHT22;1938;50.812;7.738;2023-08-24T02:19:24;16.00;99.90
3846;DHT22;1938;50.812;7.738;2023-08-24T02:21:50;16.00;99.90
3846;DHT22;1938;50.812;7.738;2023-08-24T02:24:15;16.00;99.90
3846;DHT22;1938;50.812;7.738;2023-08-24T02:26:41;15.90;99.90
3846;DHT22;1938;50.812;7.738;2023-08-24T02:29:07;15.90;99.90
3846;DHT22;1938;50.812;7.738;2023-08-24T02:31:33;15.90;99.90
3846;DHT22;1938;50.812;7.738;2023-08-24T02:33:58;15.90;99.90
3846;DHT22;1938;50.812;7.738;2023-08-24T02:36:24;15.90;99.90
3846;DHT22;1938;50.812;7.738;2023-08-24T02:38:49;15.90;99.90
3846;DHT22;1938;50.812;7.738;2023-08-24T02:41:15;15.90;99.90
3846;DHT22;1938;50.812;7.738;2023-08-24T02:43:41;15.90;99.90
3846;DHT22;1938;50.812;7.738;2023-08-24T02:46:08;15.90;99.90
3846;DHT22;1938;50.812;7.738;2023-08-24T02:48:35;16.00;99.90
3846;DHT22;1938;50.812;7.738;2023-08-24T02:51:02;16.10;99.90
3846;DHT22;1938;50.812;7.738;2023-08-24T02:53:29;16.00;99.90
3846;DHT22;1938;50.812;7.738;2023-08-24T02:55:56;15.90;99.90
3846;DHT22;1938;50.812;7.738;2023-08-24T02:58:23;15.80;99.90
3846;DHT22;1938;50.812;7.738;2023-08-24T03:00:49;15.80;99.90
3846;DHT22;1938;50.812;7.738;2023-08-24T03:03:15;15.80;99.90
3846;DHT22;1938;50.812;7.738;2023-08-24T03:05:41;15.80;99.90
3846;DHT22;1938;50.812;7.738;2023-08-24T03:08:06;15.80;99.90
3846;DHT22;1938;50.812;7.738;2023-08-24T03:10:35;15.80;99.90
3846;DHT22;1938;50.812;7.738;2023-08-24T03:13:01;15.80;99.90
3846;DHT22;1938;50.812;7.738;2023-08-24T03:15:28;15.80;99.90
3846;DHT22;1938;50.812;7.738;2023-08-24T03:17:53;15.90;99.90
3846;DHT22;1938;50.812;7.738;2023-08-24T03:20:19;15.90;99.90
3846;DHT22;1938;50.812;7.738;2023-08-24T03:22:45;15.90;99.90
3846;DHT22;1938;50.812;7.738;2023-08-24T03:25:10;15.90;99.90
3846;DHT22;1938;50.812;7.738;2023-08-24T03:27:37;15.90;99.90
3846;DHT22;1938;50.812;7.738;2023-08-24T03:30:04;16.00;99.90
3846;DHT22;1938;50.812;7.738;2023-08-24T03:32:30;16.00;99.90
3846;DHT22;1938;50.812;7.738;2023-08-24T03:34:59;16.10;99.90
3846;DHT22;1938;50.812;7.738;2023-08-24T03:37:25;16.10;85.80
3846;DHT22;1938;50.812;7.738;2023-08-24T03:39:51;16.10;47.00
3846;DHT22;1938;50.812;7.738;2023-08-24T03:42:17;16.10;36.90
3846;DHT22;1938;50.812;7.738;2023-08-24T03:44:43;16.10;78.20
3846;DHT22;1938;50.812;7.738;2023-08-24T03:47:08;15.90;93.70
3846;DHT22;1938;50.812;7.738;2023-08-24T03:49:34;15.80;99.90
3846;DHT22;1938;50.812;7.738;2023-08-24T03:52:00;15.60;99.90
3846;DHT22;1938;50.812;7.738;2023-08-24T03:54:25;15.50;99.90
3846;DHT22;1938;50.812;7.738;2023-08-24T03:56:51;15.50;99.90
3846;DHT22;1938;50.812;7.738;2023-08-24T03:59:16;15.50;99.90
3846;DHT22;1938;50.812;7.738;2023-08-24T04:01:42;15.60;99.90
3846;DHT22;1938;50.812;7.738;2023-08-24T04:04:09;15.60;99.90
3846;DHT22;1938;50.812;7.738;2023-08-24T04:06:34;15.70;99.90
3846;DHT22;1938;50.812;7.738;2023-08-24T04:09:01;15.70;99.90
3846;DHT22;1938;50.812;7.738;2023-08-24T04:11:26;15.70;99.90
3846;DHT22;1938;50.812;7.738;2023-08-24T04:13:52;15.80;99.90
3846;DHT22;1938;50.812;7.738;2023-08-24T04:16:18;15.70;99.90
3846;DHT22;1938;50.812;7.738;2023-08-24T04:18:44;15.60;99.90
3846;DHT22;1938;50.812;7.738;2023-08-24T04:21:10;15.30;99.90
3846;DHT22;1938;50.812;7.738;2023-08-24T04:23:35;15.00;99.90
3846;DHT22;1938;50.812;7.738;2023-08-24T04:26:01;15.20;99.90
3846;DHT22;1938;50.812;7.738;2023-08-24T04:28:27;15.30;99.90
3846;DHT22;1938;50.812;7.738;2023-08-24T04:30:54;15.40;99.90
3846;DHT22;1938;50.812;7.738;2023-08-24T04:33:21;15.50;99.90
3846;DHT22;1938;50.812;7.738;2023-08-24T04:35:51;15.60;99.90
3846;DHT22;1938;50.812;7.738;2023-08-24T04:38:17;15.70;99.90
3846;DHT22;1938;50.812;7.738;2023-08-24T04:40:49;15.80;99.90
3846;DHT22;1938;50.812;7.738;2023-08-24T04:43:15;15.90;99.90
3846;DHT22;1938;50.812;7.738;2023-08-24T04:45:41;16.00;99.90
3846;DHT22;1938;50.812;7.738;2023-08-24T04:48:06;16.10;99.90
3846;DHT22;1938;50.812;7.738;2023-08-24T04:50:32;16.10;99.90
3846;DHT22;1938;50.812;7.738;2023-08-24T04:52:57;16.10;99.90
3846;DHT22;1938;50.812;7.738;2023-08-24T04:55:23;16.20;99.90
3846;DHT22;1938;50.812;7.738;2023-08-24T04:57:48;16.20;99.90
3846;DHT22;1938;50.812;7.738;2023-08-24T05:00:15;16.30;99.90
3846;DHT22;1938;50.812;7.738;2023-08-24T05:02:42;16.40;99.90
3846;DHT22;1938;50.812;7.738;2023-08-24T05:05:08;16.50;99.90
3846;DHT22;1938;50.812;7.738;2023-08-24T05:07:37;16.60;88.50
3846;DHT22;1938;50.812;7.738;2023-08-24T05:10:03;16.70;30.80
3846;DHT22;1938;50.812;7.738;2023-08-24T05:12:29;16.80;1.00
3846;DHT22;1938;50.812;7.738;2023-08-24T05:14:55;16.90;1.00
3846;DHT22;1938;50.812;7.738;2023-08-24T05:17:20;17.00;99.90
3846;DHT22;1938;50.812;7.738;2023-08-24T05:19:51;17.00;99.90
3846;DHT22;1938;50.812;7.738;2023-08-24T05:22:16;17.00;1.00
3846;DHT22;1938;50.812;7.738;2023-08-24T05:24:42;16.80;1.00
3846;DHT22;1938;50.812;7.738;2023-08-24T05:27:07;16.90;92.10
3846;DHT22;1938;50.812;7.738;2023-08-24T05:29:33;16.70;43.60
3846;DHT22;1938;50.812;7.738;2023-08-24T05:31:59;16.60;99.90
3846;DHT22;1938;50.812;7.738;2023-08-24T05:34:25;16.60;99.90
3846;DHT22;1938;50.812;7.738;2023-08-24T05:36:50;16.50;1.00
3846;DHT22;1938;50.812;7.738;2023-08-24T05:39:16;16.40;9.30
3846;DHT22;1938;50.812;7.738;2023-08-24T05:41:42;16.30;55.30
3846;DHT22;1938;50.812;7.738;2023-08-24T05:44:07;16.30;99.90
3846;DHT22;1938;50.812;7.738;2023-08-24T05:46:33;16.50;99.90
3846;DHT22;1938;50.812;7.738;2023-08-24T05:48:59;16.40;51.00
3846;DHT22;1938;50.812;7.738;2023-08-24T05:51:25;16.20;99.90
3846;DHT22;1938;50.812;7.738;2023-08-24T05:53:50;16.10;99.90
3846;DHT22;1938;50.812;7.738;2023-08-24T05:56:24;16.00;99.90
3846;DHT22;1938;50.812;7.738;2023-08-24T05:58:50;15.90;99.90
3846;DHT22;1938;50.812;7.738;2023-08-24T06:01:16;15.90;99.90
3846;DHT22;1938;50.812;7.738;2023-08-24T06:03:41;16.00;99.90
3846;DHT22;1938;50.812;7.738;2023-08-24T06:06:07;16.10;99.90
3846;DHT22;1938;50.812;7.738;2023-08-24T06:08:34;16.20;99.90
3846;DHT22;1938;50.812;7.738;2023-08-24T06:11:00;16.30;99.90
3846;DHT22;1938;50.812;7.738;2023-08-24T06:13:26;16.40;99.90
3846;DHT22;1938;50.812;7.738;2023-08-24T06:15:51;16.50;99.90
3846;DHT22;1938;50.812;7.738;2023-08-24T06:18:17;16.50;96.50
3846;DHT22;1938;50.812;7.738;2023-08-24T06:20:42;16.60;98.30
3846;DHT22;1938;50.812;7.738;2023-08-24T06:23:09;16.70;48.70
3846;DHT22;1938;50.812;7.738;2023-08-24T06:25:35;16.70;24.70
3846;DHT22;1938;50.812;7.738;2023-08-24T06:28:01;16.80;50.30
3846;DHT22;1938;50.812;7.738;2023-08-24T06:30:29;16.80;1.00
3846;DHT22;1938;50.812;7.738;2023-08-24T06:32:59;17.00;1.00
3846;DHT22;1938;50.812;7.738;2023-08-24T06:35:24;17.10;99.90
3846;DHT22;1938;50.812;7.738;2023-08-24T06:37:50;17.10;99.90
3846;DHT22;1938;50.812;7.738;2023-08-24T06:40:16;17.30;99.90
3846;DHT22;1938;50.812;7.738;2023-08-24T06:42:43;17.50;99.90
3846;DHT22;1938;50.812;7.738;2023-08-24T06:45:09;17.60;60.60
3846;DHT22;1938;50.812;7.738;2023-08-24T06:47:36;17.90;99.90
3846;DHT22;1938;50.812;7.738;2023-08-24T06:50:01;18.10;1.00
3846;DHT22;1938;50.812;7.738;2023-08-24T06:52:27;18.30;55.40
3846;DHT22;1938;50.812;7.738;2023-08-24T06:54:53;19.00;99.90
3846;DHT22;1938;50.812;7.738;2023-08-24T06:57:21;19.60;1.00
3846;DHT22;1938;50.812;7.738;2023-08-24T06:59:47;20.70;99.90
3846;DHT22;1938;50.812;7.738;2023-08-24T07:02:13;21.80;1.00
3846;DHT22;1938;50.812;7.738;2023-08-24T07:04:39;23.30;99.90
3846;DHT22;1938;50.812;7.738;2023-08-24T07:07:06;24.30;99.30
3846;DHT22;1938;50.812;7.738;2023-08-24T07:09:31;25.70;44.70
3846;DHT22;1938;50.812;7.738;2023-08-24T07:11:58;26.50;18.20
3846;DHT22;1938;50.812;7.738;2023-08-24T07:14:24;27.80;15.90
3846;DHT22;1938;50.812;7.738;2023-08-24T07:16:49;29.00;14.10
3846;DHT22;1938;50.812;7.738;2023-08-24T07:19:15;30.20;10.40
3846;DHT22;1938;50.812;7.738;2023-08-24T07:21:40;31.40;8.90
3846;DHT22;1938;50.812;7.738;2023-08-24T07:24:06;32.40;8.70
3846;DHT22;1938;50.812;7.738;2023-08-24T07:26:31;31.90;2.50
3846;DHT22;1938;50.812;7.738;2023-08-24T07:28:57;32.60;1.90
3846;DHT22;1938;50.812;7.738;2023-08-24T07:31:24;33.10;1.30
3846;DHT22;1938;50.812;7.738;2023-08-24T07:33:49;32.20;1.00
3846;DHT22;1938;50.812;7.738;2023-08-24T07:36:15;32.00;1.00
3846;DHT22;1938;50.812;7.738;2023-08-24T07:38:41;32.70;1.00
3846;DHT22;1938;50.812;7.738;2023-08-24T07:41:06;33.70;1.00
3846;DHT22;1938;50.812;7.738;2023-08-24T07:43:33;32.50;1.00
3846;DHT22;1938;50.812;7.738;2023-08-24T07:45:59;32.80;1.00
3846;DHT22;1938;50.812;7.738;2023-08-24T07:48:25;33.30;1.00
3846;DHT22;1938;50.812;7.738;2023-08-24T07:50:51;33.50;1.00
3846;DHT22;1938;50.812;7.738;2023-08-24T07:53:17;33.30;1.00
3846;DHT22;1938;50.812;7.738;2023-08-24T07:55:43;33.80;1.00
3846;DHT22;1938;50.812;7.738;2023-08-24T07:58:08;33.60;1.00
3846;DHT22;1938;50.812;7.738;2023-08-24T08:00:34;35.40;1.00
3846;DHT22;1938;50.812;7.738;2023-08-24T08:03:00;36.70;1.00
3846;DHT22;1938;50.812;7.738;2023-08-24T08:05:26;37.30;1.00
3846;DHT22;1938;50.812;7.738;2023-08-24T08:07:53;38.20;1.00
3846;DHT22;1938;50.812;7.738;2023-08-24T08:10:18;39.40;1.00
3846;DHT22;1938;50.812;7.738;2023-08-24T08:12:46;38.60;1.00
3846;DHT22;1938;50.812;7.738;2023-08-24T08:15:12;39.90;1.00
3846;DHT22;1938;50.812;7.738;2023-08-24T08:17:37;40.70;1.00
3846;DHT22;1938;50.812;7.738;2023-08-24T08:20:04;41.30;1.00
3846;DHT22;1938;50.812;7.738;2023-08-24T08:22:30;41.40;1.00
3846;DHT22;1938;50.812;7.738;2023-08-24T08:25:01;41.50;1.00
3846;DHT22;1938;50.812;7.738;2023-08-24T08:27:27;41.50;1.00
3846;DHT22;1938;50.812;7.738;2023-08-24T08:29:53;41.80;1.00
3846;DHT22;1938;50.812;7.738;2023-08-24T08:32:19;40.60;1.00
3846;DHT22;1938;50.812;7.738;2023-08-24T08:34:44;41.60;1.00
3846;DHT22;1938;50.812;7.738;2023-08-24T08:37:10;41.80;1.00
3846;DHT22;1938;50.812;7.738;2023-08-24T08:39:37;42.30;1.00
3846;DHT22;1938;50.812;7.738;2023-08-24T08:42:02;42.20;1.00
3846;DHT22;1938;50.812;7.738;2023-08-24T08:44:32;42.50;1.00
3846;DHT22;1938;50.812;7.738;2023-08-24T08:46:58;42.40;1.00
3846;DHT22;1938;50.812;7.738;2023-08-24T08:49:24;43.00;1.00
3846;DHT22;1938;50.812;7.738;2023-08-24T08:51:50;43.00;1.00
3846;DHT22;1938;50.812;7.738;2023-08-24T08:54:17;43.50;1.00
3846;DHT22;1938;50.812;7.738;2023-08-24T08:56:42;44.30;1.00
3846;DHT22;1938;50.812;7.738;2023-08-24T08:59:09;44.00;1.00
3846;DHT22;1938;50.812;7.738;2023-08-24T09:01:37;43.90;1.00
3846;DHT22;1938;50.812;7.738;2023-08-24T09:04:03;43.90;1.00
3846;DHT22;1938;50.812;7.738;2023-08-24T09:06:32;43.00;1.00
3846;DHT22;1938;50.812;7.738;2023-08-24T09:08:59;43.70;1.00
3846;DHT22;1938;50.812;7.738;2023-08-24T09:11:25;43.60;1.00
3846;DHT22;1938;50.812;7.738;2023-08-24T09:13:50;44.10;1.00
3846;DHT22;1938;50.812;7.738;2023-08-24T09:16:16;44.30;1.00
3846;DHT22;1938;50.812;7.738;2023-08-24T09:18:46;43.90;1.00
3846;DHT22;1938;50.812;7.738;2023-08-24T09:21:14;43.20;1.00
3846;DHT22;1938;50.812;7.738;2023-08-24T09:23:52;43.00;1.00
3846;DHT22;1938;50.812;7.738;2023-08-24T09:26:32;42.20;1.00
3846;DHT22;1938;50.812;7.738;2023-08-24T09:28:59;41.50;1.00
3846;DHT22;1938;50.812;7.738;2023-08-24T09:31:38;41.10;1.00
3846;DHT22;1938;50.812;7.738;2023-08-24T09:34:04;40.50;1.00
3846;DHT22;1938;50.812;7.738;2023-08-24T09:36:32;39.60;1.00
3846;DHT22;1938;50.812;7.738;2023-08-24T09:38:59;38.50;1.00
3846;DHT22;1938;50.812;7.738;2023-08-24T09:41:44;37.80;1.00
3846;DHT22;1938;50.812;7.738;2023-08-24T09:44:10;37.00;1.00
3846;DHT22;1938;50.812;7.738;2023-08-24T09:46:37;36.60;1.00
3846;DHT22;1938;50.812;7.738;2023-08-24T09:49:05;36.10;1.00
3846;DHT22;1938;50.812;7.738;2023-08-24T09:51:32;35.60;1.00
3846;DHT22;1938;50.812;7.738;2023-08-24T09:53:58;35.40;1.00
3846;DHT22;1938;50.812;7.738;2023-08-24T09:56:29;35.20;1.00
3846;DHT22;1938;50.812;7.738;2023-08-24T09:58:58;34.90;1.00
3846;DHT22;1938;50.812;7.738;2023-08-24T10:01:25;34.50;1.00
3846;DHT22;1938;50.812;7.738;2023-08-24T10:03:51;34.00;1.00
3846;DHT22;1938;50.812;7.738;2023-08-24T10:06:20;33.50;1.00
3846;DHT22;1938;50.812;7.738;2023-08-24T10:08:50;33.10;1.00
3846;DHT22;1938;50.812;7.738;2023-08-24T10:11:23;32.70;1.00
3846;DHT22;1938;50.812;7.738;2023-08-24T10:16:27;32.20;1.00
3846;DHT22;1938;50.812;7.738;2023-08-24T10:18:54;32.10;1.00
3846;DHT22;1938;50.812;7.738;2023-08-24T10:21:21;32.00;1.00
3846;DHT22;1938;50.812;7.738;2023-08-24T10:23:51;31.80;1.00
3846;DHT22;1938;50.812;7.738;2023-08-24T10:26:17;31.80;1.00
3846;DHT22;1938;50.812;7.738;2023-08-24T10:28:45;31.70;1.00
3846;DHT22;1938;50.812;7.738;2023-08-24T10:31:11;31.70;1.00
3846;DHT22;1938;50.812;7.738;2023-08-24T10:33:37;31.50;1.00
3846;DHT22;1938;50.812;7.738;2023-08-24T10:36:06;31.40;1.00
3846;DHT22;1938;50.812;7.738;2023-08-24T10:38:40;31.00;1.00
3846;DHT22;1938;50.812;7.738;2023-08-24T10:41:07;30.80;1.00
3846;DHT22;1938;50.812;7.738;2023-08-24T10:43:49;30.80;1.00
3846;DHT22;1938;50.812;7.738;2023-08-24T10:46:15;30.70;1.00
3846;DHT22;1938;50.812;7.738;2023-08-24T10:53:47;30.90;99.90
3846;DHT22;1938;50.812;7.738;2023-08-24T10:56:15;30.80;99.90
3846;DHT22;1938;50.812;7.738;2023-08-24T10:58:43;30.70;99.90
3846;DHT22;1938;50.812;7.738;2023-08-24T11:01:17;30.60;99.90
3846;DHT22;1938;50.812;7.738;2023-08-24T11:03:49;30.40;99.90
3846;DHT22;1938;50.812;7.738;2023-08-24T11:06:19;30.30;99.90
3846;DHT22;1938;50.812;7.738;2023-08-24T11:08:47;30.40;99.90
3846;DHT22;1938;50.812;7.738;2023-08-24T11:11:22;30.50;99.90
3846;DHT22;1938;50.812;7.738;2023-08-24T11:14:16;30.60;99.90
3846;DHT22;1938;50.812;7.738;2023-08-24T11:16:45;30.70;99.90
3846;DHT22;1938;50.812;7.738;2023-08-24T11:19:12;30.80;99.90
3846;DHT22;1938;50.812;7.738;2023-08-24T11:21:39;30.80;99.90
3846;DHT22;1938;50.812;7.738;2023-08-24T11:24:05;30.70;99.90
3846;DHT22;1938;50.812;7.738;2023-08-24T11:26:31;30.80;99.90
3846;DHT22;1938;50.812;7.738;2023-08-24T11:28:56;30.80;99.90
3846;DHT22;1938;50.812;7.738;2023-08-24T11:31:23;31.00;99.90
3846;DHT22;1938;50.812;7.738;2023-08-24T11:33:54;31.00;99.90
3846;DHT22;1938;50.812;7.738;2023-08-24T11:36:22;31.00;99.90
3846;DHT22;1938;50.812;7.738;2023-08-24T11:38:55;31.00;99.90
3846;DHT22;1938;50.812;7.738;2023-08-24T11:41:21;31.10;99.90
3846;DHT22;1938;50.812;7.738;2023-08-24T11:43:48;30.70;99.90
3846;DHT22;1938;50.812;7.738;2023-08-24T11:46:16;30.60;99.90
3846;DHT22;1938;50.812;7.738;2023-08-24T11:48:42;30.50;99.90
3846;DHT22;1938;50.812;7.738;2023-08-24T11:51:09;30.50;99.90
3846;DHT22;1938;50.812;7.738;2023-08-24T11:53:41;30.40;99.90
3846;DHT22;1938;50.812;7.738;2023-08-24T11:56:14;30.40;99.90
3846;DHT22;1938;50.812;7.738;2023-08-24T11:58:40;30.40;99.90
3846;DHT22;1938;50.812;7.738;2023-08-24T12:01:06;30.40;99.90
3846;DHT22;1938;50.812;7.738;2023-08-24T12:03:32;30.30;99.90
3846;DHT22;1938;50.812;7.738;2023-08-24T12:06:01;30.30;99.90
3846;DHT22;1938;50.812;7.738;2023-08-24T12:08:29;30.20;99.90
3846;DHT22;1938;50.812;7.738;2023-08-24T12:10:54;30.10;99.90
3846;DHT22;1938;50.812;7.738;2023-08-24T12:13:21;30.00;99.90
3846;DHT22;1938;50.812;7.738;2023-08-24T12:15:47;30.00;99.90
3846;DHT22;1938;50.812;7.738;2023-08-24T12:18:16;30.00;99.90
3846;DHT22;1938;50.812;7.738;2023-08-24T12:20:42;30.00;99.90
3846;DHT22;1938;50.812;7.738;2023-08-24T12:23:09;30.10;99.90
3846;DHT22;1938;50.812;7.738;2023-08-24T12:25:42;30.00;99.90
3846;DHT22;1938;50.812;7.738;2023-08-24T12:28:15;30.10;99.90
3846;DHT22;1938;50.812;7.738;2023-08-24T12:33:27;30.10;99.90
3846;DHT22;1938;50.812;7.738;2023-08-24T12:35:54;30.10;99.90
3846;DHT22;1938;50.812;7.738;2023-08-24T12:38:21;30.00;99.90
3846;DHT22;1938;50.812;7.738;2023-08-24T12:40:48;30.00;99.90
3846;DHT22;1938;50.812;7.738;2023-08-24T12:43:14;30.10;99.90
3846;DHT22;1938;50.812;7.738;2023-08-24T12:45:40;30.20;99.90
3846;DHT22;1938;50.812;7.738;2023-08-24T12:48:06;30.30;99.90
3846;DHT22;1938;50.812;7.738;2023-08-24T12:50:35;30.30;99.90
3846;DHT22;1938;50.812;7.738;2023-08-24T12:53:01;30.30;99.90
3846;DHT22;1938;50.812;7.738;2023-08-24T12:55:28;30.30;99.90
3846;DHT22;1938;50.812;7.738;2023-08-24T12:57:54;30.20;99.90
3846;DHT22;1938;50.812;7.738;2023-08-24T13:00:20;30.10;99.90
3846;DHT22;1938;50.812;7.738;2023-08-24T13:02:50;30.00;99.90
3846;DHT22;1938;50.812;7.738;2023-08-24T13:05:16;29.90;99.90
3846;DHT22;1938;50.812;7.738;2023-08-24T13:07:41;29.90;99.90
3846;DHT22;1938;50.812;7.738;2023-08-24T13:10:07;29.70;99.90
3846;DHT22;1938;50.812;7.738;2023-08-24T13:12:34;29.50;99.90
3846;DHT22;1938;50.812;7.738;2023-08-24T13:15:00;29.20;99.90
3846;DHT22;1938;50.812;7.738;2023-08-24T13:17:27;29.10;99.90
3846;DHT22;1938;50.812;7.738;2023-08-24T13:19:52;28.90;99.90
3846;DHT22;1938;50.812;7.738;2023-08-24T13:22:18;28.70;99.90
3846;DHT22;1938;50.812;7.738;2023-08-24T13:24:43;28.50;99.90
3846;DHT22;1938;50.812;7.738;2023-08-24T13:27:10;28.60;99.90
3846;DHT22;1938;50.812;7.738;2023-08-24T13:29:36;28.40;99.90
3846;DHT22;1938;50.812;7.738;2023-08-24T13:32:02;28.40;99.90
3846;DHT22;1938;50.812;7.738;2023-08-24T13:34:28;28.30;99.90
3846;DHT22;1938;50.812;7.738;2023-08-24T13:36:53;28.40;99.90
3846;DHT22;1938;50.812;7.738;2023-08-24T13:39:19;28.50;99.90
3846;DHT22;1938;50.812;7.738;2023-08-24T13:41:45;28.50;99.90
3846;DHT22;1938;50.812;7.738;2023-08-24T13:44:10;28.50;99.90
3846;DHT22;1938;50.812;7.738;2023-08-24T13:46:36;28.30;99.90
3846;DHT22;1938;50.812;7.738;2023-08-24T13:49:01;28.50;99.90
3846;DHT22;1938;50.812;7.738;2023-08-24T13:51:28;28.30;99.90
3846;DHT22;1938;50.812;7.738;2023-08-24T13:53:53;28.20;99.90
3846;DHT22;1938;50.812;7.738;2023-08-24T13:56:19;28.10;99.90
3846;DHT22;1938;50.812;7.738;2023-08-24T13:58:45;28.00;99.90
3846;DHT22;1938;50.812;7.738;2023-08-24T14:01:12;27.80;99.90
3846;DHT22;1938;50.812;7.738;2023-08-24T14:03:38;27.80;99.90
3846;DHT22;1938;50.812;7.738;2023-08-24T14:06:05;27.70;99.90
3846;DHT22;1938;50.812;7.738;2023-08-24T14:08:31;27.60;99.90
3846;DHT22;1938;50.812;7.738;2023-08-24T14:10:56;27.50;99.90
3846;DHT22;1938;50.812;7.738;2023-08-24T14:13:22;27.30;99.90
3846;DHT22;1938;50.812;7.738;2023-08-24T14:15:50;27.00;99.90
3846;DHT22;1938;50.812;7.738;2023-08-24T14:18:16;26.90;99.90
3846;DHT22;1938;50.812;7.738;2023-08-24T14:20:42;26.80;99.90
3846;DHT22;1938;50.812;7.738;2023-08-24T14:23:08;26.80;99.90
3846;DHT22;1938;50.812;7.738;2023-08-24T14:25:34;26.60;1.00
3846;DHT22;1938;50.812;7.738;2023-08-24T14:27:59;26.40;1.00
3846;DHT22;1938;50.812;7.738;2023-08-24T14:30:25;26.30;1.00
3846;DHT22;1938;50.812;7.738;2023-08-24T14:32:50;26.20;1.00
3846;DHT22;1938;50.812;7.738;2023-08-24T14:35:16;26.30;1.00
3846;DHT22;1938;50.812;7.738;2023-08-24T14:37:42;26.30;1.00
3846;DHT22;1938;50.812;7.738;2023-08-24T14:40:07;26.40;1.00
3846;DHT22;1938;50.812;7.738;2023-08-24T14:42:33;26.50;1.00
3846;DHT22;1938;50.812;7.738;2023-08-24T14:45:00;26.50;1.00
3846;DHT22;1938;50.812;7.738;2023-08-24T14:47:25;26.50;1.00
3846;DHT22;1938;50.812;7.738;2023-08-24T14:49:51;26.40;1.00
3846;DHT22;1938;50.812;7.738;2023-08-24T14:52:16;26.50;1.00
3846;DHT22;1938;50.812;7.738;2023-08-24T14:54:42;26.60;1.00
3846;DHT22;1938;50.812;7.738;2023-08-24T14:57:07;26.60;1.00
3846;DHT22;1938;50.812;7.738;2023-08-24T14:59:33;26.70;1.00
3846;DHT22;1938;50.812;7.738;2023-08-24T15:01:59;26.70;1.00
3846;DHT22;1938;50.812;7.738;2023-08-24T15:04:27;26.70;1.00
3846;DHT22;1938;50.812;7.738;2023-08-24T15:06:52;26.70;1.00
3846;DHT22;1938;50.812;7.738;2023-08-24T15:09:18;26.70;1.00
3846;DHT22;1938;50.812;7.738;2023-08-24T15:11:44;26.70;1.00
3846;DHT22;1938;50.812;7.738;2023-08-24T15:14:09;26.70;1.00
3846;DHT22;1938;50.812;7.738;2023-08-24T15:16:35;26.60;1.00
3846;DHT22;1938;50.812;7.738;2023-08-24T15:19:00;26.60;1.00
3846;DHT22;1938;50.812;7.738;2023-08-24T15:21:27;26.60;1.00
3846;DHT22;1938;50.812;7.738;2023-08-24T15:23:53;26.60;1.00
3846;DHT22;1938;50.812;7.738;2023-08-24T15:26:19;26.60;1.00
3846;DHT22;1938;50.812;7.738;2023-08-24T15:29:20;26.50;1.00
3846;DHT22;1938;50.812;7.738;2023-08-24T15:31:47;26.40;1.00
3846;DHT22;1938;50.812;7.738;2023-08-24T15:34:12;26.30;1.00
3846;DHT22;1938;50.812;7.738;2023-08-24T15:36:38;26.20;1.00
3846;DHT22;1938;50.812;7.738;2023-08-24T15:39:05;25.90;1.00
3846;DHT22;1938;50.812;7.738;2023-08-24T15:41:31;25.80;1.00
3846;DHT22;1938;50.812;7.738;2023-08-24T15:43:56;25.60;1.00
3846;DHT22;1938;50.812;7.738;2023-08-24T15:46:23;25.50;1.00
3846;DHT22;1938;50.812;7.738;2023-08-24T15:48:49;25.30;1.00
3846;DHT22;1938;50.812;7.738;2023-08-24T15:51:16;25.10;1.00
3846;DHT22;1938;50.812;7.738;2023-08-24T15:53:41;25.00;1.00
3846;DHT22;1938;50.812;7.738;2023-08-24T15:56:07;24.80;1.00
3846;DHT22;1938;50.812;7.738;2023-08-24T15:58:33;24.70;1.00
3846;DHT22;1938;50.812;7.738;2023-08-24T16:00:58;24.50;1.00
3846;DHT22;1938;50.812;7.738;2023-08-24T16:03:24;24.50;4.70
3846;DHT22;1938;50.812;7.738;2023-08-24T16:05:49;24.40;49.80
3846;DHT22;1938;50.812;7.738;2023-08-24T16:08:15;24.30;45.10
3846;DHT22;1938;50.812;7.738;2023-08-24T16:10:42;24.20;52.20
3846;DHT22;1938;50.812;7.738;2023-08-24T16:13:09;24.10;47.00
3846;DHT22;1938;50.812;7.738;2023-08-24T16:15:35;24.10;68.60
3846;DHT22;1938;50.812;7.738;2023-08-24T16:18:00;23.90;99.90
3846;DHT22;1938;50.812;7.738;2023-08-24T16:20:26;23.80;99.90